createdAt,value
2018-03-06T00:00:03.326Z,98256.27
2018-03-06T00:01:05.876Z,98254.50
2018-03-06T00:02:08.424Z,98253.91
2018-03-06T00:03:10.949Z,98251.94
2018-03-06T00:04:13.492Z,98254.69
2018-03-06T00:05:16.048Z,98255.86
2018-03-06T00:06:18.600Z,98260.39
2018-03-06T00:07:21.146Z,98257.05
2018-03-06T00:08:23.713Z,98256.25
2018-03-06T00:09:26.235Z,98255.27
2018-03-06T00:10:28.784Z,98255.27
2018-03-06T00:11:31.318Z,98258.22
2018-03-06T00:12:33.877Z,98253.06
2018-03-06T00:13:36.432Z,98253.46
2018-03-06T00:14:38.970Z,98248.34
2018-03-06T00:15:41.494Z,98249.13
2018-03-06T00:16:44.013Z,98247.75
2018-03-06T00:17:46.555Z,98248.53
2018-03-06T00:18:49.120Z,98244.61
2018-03-06T00:19:51.664Z,98246.56
2018-03-06T00:20:54.187Z,98245.98
2018-03-06T00:21:56.731Z,98250.30
2018-03-06T00:22:59.271Z,98254.23
2018-03-06T00:24:01.824Z,98248.34
2018-03-06T00:25:04.358Z,98245.39
2018-03-06T00:26:06.893Z,98251.28
2018-03-06T00:27:09.457Z,98254.23
2018-03-06T00:28:11.997Z,98251.08
2018-03-06T00:29:14.542Z,98250.10
2018-03-06T00:30:17.081Z,98244.59
2018-03-06T00:31:19.630Z,98247.15
2018-03-06T00:32:22.170Z,98251.67
2018-03-06T00:33:24.720Z,98247.15
2018-03-06T00:34:27.264Z,98254.03
2018-03-06T00:35:29.827Z,98243.22
2018-03-06T00:36:32.357Z,98252.85
2018-03-06T00:37:34.882Z,98253.26
2018-03-06T00:38:37.942Z,98255.02
2018-03-06T00:39:40.477Z,98252.45
2018-03-06T00:40:43.018Z,98249.91
2018-03-06T00:41:45.554Z,98249.72
2018-03-06T00:42:48.096Z,98258.76
2018-03-06T00:43:50.629Z,98257.38
2018-03-06T00:44:53.150Z,98251.48
2018-03-06T00:45:55.701Z,98256.20
2018-03-06T00:46:58.244Z,98247.95
2018-03-06T00:48:00.796Z,98252.07
2018-03-06T00:49:03.329Z,98248.53
2018-03-06T00:50:05.864Z,98246.95
2018-03-06T00:51:08.420Z,98241.64
2018-03-06T00:52:10.956Z,98244.40
2018-03-06T00:53:13.508Z,98241.25
2018-03-06T00:54:16.022Z,98238.11
2018-03-06T00:55:18.574Z,98237.32
2018-03-06T00:56:21.131Z,98234.17
2018-03-06T00:57:23.684Z,98230.44
2018-03-06T00:58:26.224Z,98232.79
2018-03-06T00:59:28.771Z,98229.64
2018-03-06T01:00:31.303Z,98230.23
2018-03-06T01:01:33.839Z,98229.64
2018-03-06T01:02:36.365Z,98220.80
2018-03-06T01:03:38.916Z,98228.06
2018-03-06T01:04:41.458Z,98222.17
2018-03-06T01:05:44.000Z,98220.80
2018-03-06T01:06:46.523Z,98220.80
2018-03-06T01:07:49.068Z,98219.61
2018-03-06T01:08:51.610Z,98220.20
2018-03-06T01:09:54.147Z,98219.80
2018-03-06T01:10:56.689Z,98221.77
2018-03-06T01:11:59.235Z,98218.63
2018-03-06T01:13:01.768Z,98213.71
2018-03-06T01:14:04.317Z,98216.66
2018-03-06T01:15:06.864Z,98216.66
2018-03-06T01:16:09.397Z,98221.34
2018-03-06T01:17:11.944Z,98222.52
2018-03-06T01:18:14.492Z,98220.94
2018-03-06T01:19:17.044Z,98224.08
2018-03-06T01:20:19.666Z,98223.48
2018-03-06T01:21:22.215Z,98219.73
2018-03-06T01:22:24.745Z,98225.04
2018-03-06T01:23:27.285Z,98227.78
2018-03-06T01:24:29.818Z,98229.16
2018-03-06T01:25:32.385Z,98229.34
2018-03-06T01:26:34.882Z,98224.63
2018-03-06T01:27:37.401Z,98226.00
2018-03-06T01:28:39.934Z,98227.17
2018-03-06T01:29:42.462Z,98227.76
2018-03-06T01:30:45.004Z,98223.40
2018-03-06T01:31:47.530Z,98232.23
2018-03-06T01:32:50.079Z,98232.83
2018-03-06T01:33:52.620Z,98234.01
2018-03-06T01:34:55.168Z,98228.30
2018-03-06T01:35:57.697Z,98230.66
2018-03-06T01:37:00.236Z,98229.48
2018-03-06T01:38:02.780Z,98226.33
2018-03-06T01:39:05.321Z,98227.31
2018-03-06T01:40:07.858Z,98217.88
2018-03-06T01:41:10.385Z,98224.17
2018-03-06T01:42:12.915Z,98221.61
2018-03-06T01:43:15.445Z,98216.11
2018-03-06T01:44:17.988Z,98212.58
2018-03-06T01:45:20.536Z,98211.78
2018-03-06T01:46:23.086Z,98215.13
2018-03-06T01:47:25.654Z,98207.46
2018-03-06T01:48:28.204Z,98215.91
2018-03-06T01:49:30.753Z,98205.69
2018-03-06T01:50:33.300Z,98202.55
2018-03-06T01:53:11.820Z,98197.83
2018-03-06T01:54:14.345Z,98203.91
2018-03-06T01:55:16.892Z,98196.25
2018-03-06T01:56:19.433Z,98191.92
2018-03-06T01:57:21.981Z,98195.27
2018-03-06T01:58:24.540Z,98191.72
2018-03-06T01:59:27.080Z,98196.64
2018-03-06T02:00:29.605Z,98197.81
2018-03-06T02:01:32.141Z,98193.29
2018-03-06T02:02:34.682Z,98188.97
2018-03-06T02:03:37.230Z,98191.72
2018-03-06T02:04:39.768Z,98186.62
2018-03-06T02:05:42.305Z,98186.22
2018-03-06T02:06:44.830Z,98187.59
2018-03-06T02:07:47.384Z,98188.38
2018-03-06T02:08:49.955Z,98178.75
2018-03-06T02:09:52.486Z,98182.48
2018-03-06T02:10:55.033Z,98183.47
2018-03-06T02:11:57.572Z,98183.07
2018-03-06T02:13:00.113Z,98185.62
2018-03-06T02:14:02.680Z,98180.52
2018-03-06T02:15:05.218Z,98182.28
2018-03-06T02:16:07.756Z,98177.38
2018-03-06T02:17:10.458Z,98176.97
2018-03-06T02:18:13.011Z,98181.66
2018-03-06T02:19:15.621Z,98173.02
2018-03-06T02:20:18.165Z,98180.47
2018-03-06T02:21:20.698Z,98183.81
2018-03-06T02:22:23.236Z,98180.67
2018-03-06T02:23:25.775Z,98175.75
2018-03-06T02:24:28.340Z,98177.32
2018-03-06T02:25:30.897Z,98184.20
2018-03-06T02:26:33.434Z,98183.41
2018-03-06T02:27:35.965Z,98181.25
2018-03-06T02:28:38.516Z,98182.62
2018-03-06T02:29:41.067Z,98184.58
2018-03-06T02:30:43.598Z,98190.27
2018-03-06T02:31:46.218Z,98179.08
2018-03-06T02:32:48.766Z,98182.22
2018-03-06T02:33:51.307Z,98185.55
2018-03-06T02:34:53.858Z,98185.55
2018-03-06T02:35:56.417Z,98184.77
2018-03-06T02:36:58.953Z,98182.61
2018-03-06T02:38:01.485Z,98186.34
2018-03-06T02:39:04.017Z,98191.45
2018-03-06T02:40:06.553Z,98193.22
2018-03-06T02:41:09.094Z,98195.97
2018-03-06T02:42:11.617Z,98190.66
2018-03-06T02:43:14.151Z,98189.09
2018-03-06T02:44:16.719Z,98196.36
2018-03-06T02:45:19.268Z,98196.55
2018-03-06T02:46:21.811Z,98199.11
2018-03-06T02:47:24.352Z,98202.25
2018-03-06T02:48:26.890Z,98193.61
2018-03-06T02:49:29.447Z,98193.42
2018-03-06T02:50:31.982Z,98195.19
2018-03-06T02:51:34.522Z,98195.98
2018-03-06T02:52:37.059Z,98194.60
2018-03-06T02:53:39.623Z,98193.23
2018-03-06T02:54:42.161Z,98194.60
2018-03-06T02:55:44.690Z,98188.70
2018-03-06T02:56:47.251Z,98193.42
2018-03-06T02:57:49.804Z,98183.59
2018-03-06T02:58:52.356Z,98179.86
2018-03-06T02:59:54.931Z,98181.83
2018-03-06T03:00:57.488Z,98185.36
2018-03-06T03:02:00.031Z,98183.00
2018-03-06T03:03:02.576Z,98184.17
2018-03-06T03:04:05.114Z,98180.83
2018-03-06T03:05:07.675Z,98178.67
2018-03-06T03:06:10.211Z,98179.26
2018-03-06T03:07:12.742Z,98176.51
2018-03-06T03:08:15.265Z,98175.30
2018-03-06T03:09:17.807Z,98172.55
2018-03-06T03:10:20.384Z,98175.30
2018-03-06T03:11:22.926Z,98173.72
2018-03-06T03:12:25.540Z,98170.77
2018-03-06T03:13:28.067Z,98165.86
2018-03-06T03:14:30.612Z,98174.50
2018-03-06T03:15:33.180Z,98171.36
2018-03-06T03:16:35.720Z,98170.97
2018-03-06T03:17:38.258Z,98169.78
2018-03-06T03:18:40.816Z,98173.12
2018-03-06T03:19:43.352Z,98169.97
2018-03-06T03:20:45.889Z,98172.49
2018-03-06T03:21:48.430Z,98172.49
2018-03-06T03:22:50.978Z,98175.83
2018-03-06T03:23:53.507Z,98177.20
2018-03-06T03:24:56.033Z,98170.13
2018-03-06T03:25:58.579Z,98178.38
2018-03-06T03:27:01.132Z,98174.05
2018-03-06T03:28:03.654Z,98173.66
2018-03-06T03:29:06.191Z,98171.30
2018-03-06T03:30:08.726Z,98170.13
2018-03-06T03:31:11.261Z,98173.86
2018-03-06T03:32:13.808Z,98170.72
2018-03-06T03:33:16.381Z,98172.09
2018-03-06T03:34:18.910Z,98170.72
2018-03-06T03:35:21.480Z,98176.05
2018-03-06T03:36:24.018Z,98171.12
2018-03-06T03:37:26.565Z,98174.64
2018-03-06T03:38:29.097Z,98174.84
2018-03-06T03:39:31.642Z,98181.91
2018-03-06T03:40:34.191Z,98179.93
2018-03-06T03:41:36.721Z,98173.05
2018-03-06T03:42:39.273Z,98183.25
2018-03-06T03:43:42.197Z,98179.52
2018-03-06T03:44:44.764Z,98175.99
2018-03-06T03:45:47.314Z,98171.27
2018-03-06T03:46:49.857Z,98175.98
2018-03-06T03:47:52.393Z,98173.42
2018-03-06T03:48:54.921Z,98172.24
2018-03-06T03:49:57.452Z,98170.47
2018-03-06T03:51:00.003Z,98167.13
2018-03-06T03:52:02.551Z,98168.69
2018-03-06T03:53:05.105Z,98169.48
2018-03-06T03:54:07.633Z,98167.31
2018-03-06T03:55:10.192Z,98165.34
2018-03-06T03:56:12.788Z,98165.34
2018-03-06T03:57:15.327Z,98171.44
2018-03-06T03:58:17.901Z,98172.44
2018-03-06T03:59:20.452Z,98171.45
2018-03-06T04:00:23.028Z,98169.88
2018-03-06T04:01:25.578Z,98170.06
2018-03-06T04:02:28.105Z,98175.95
2018-03-06T04:03:30.666Z,98172.62
2018-03-06T04:04:33.211Z,98176.34
2018-03-06T04:05:35.750Z,98177.53
2018-03-06T04:06:38.305Z,98173.95
2018-03-06T04:07:40.829Z,98168.84
2018-03-06T04:08:43.377Z,98171.78
2018-03-06T04:09:45.965Z,98171.58
2018-03-06T04:10:48.587Z,98174.33
2018-03-06T04:11:51.149Z,98167.07
2018-03-06T04:12:53.701Z,98170.80
2018-03-06T04:13:56.257Z,98169.81
2018-03-06T04:14:58.832Z,98171.58
2018-03-06T04:16:01.407Z,98175.50
2018-03-06T04:17:03.934Z,98167.84
2018-03-06T04:18:06.508Z,98165.29
2018-03-06T04:19:09.056Z,98167.25
2018-03-06T04:20:11.623Z,98164.70
2018-03-06T04:21:14.178Z,98164.88
2018-03-06T04:22:16.768Z,98164.09
2018-03-06T04:23:19.327Z,98155.45
2018-03-06T04:24:21.869Z,98159.58
2018-03-06T04:25:24.412Z,98156.05
2018-03-06T04:26:26.934Z,98154.68
2018-03-06T04:27:29.488Z,98160.57
2018-03-06T04:28:32.015Z,98159.59
2018-03-06T04:29:34.545Z,98158.80
2018-03-06T04:30:37.085Z,98156.05
2018-03-06T04:31:39.622Z,98159.39
2018-03-06T04:32:42.188Z,98158.59
2018-03-06T04:33:44.743Z,98156.83
2018-03-06T04:34:47.276Z,98155.06
2018-03-06T04:35:49.845Z,98156.63
2018-03-06T04:36:52.420Z,98157.61
2018-03-06T04:37:54.945Z,98155.05
2018-03-06T04:38:57.473Z,98161.13
2018-03-06T04:40:00.020Z,98159.56
2018-03-06T04:41:02.576Z,98157.80
2018-03-06T04:42:05.340Z,98159.75
2018-03-06T04:43:07.886Z,98163.48
2018-03-06T04:44:10.408Z,98163.27
2018-03-06T04:45:12.983Z,98164.45
2018-03-06T04:46:15.552Z,98162.28
2018-03-06T04:47:18.065Z,98167.94
2018-03-06T04:48:20.603Z,98161.66
2018-03-06T04:49:23.137Z,98161.06
2018-03-06T04:50:25.683Z,98164.79
2018-03-06T04:51:28.232Z,98159.48
2018-03-06T04:52:30.782Z,98164.98
2018-03-06T04:53:33.367Z,98154.77
2018-03-06T04:54:35.923Z,98156.73
2018-03-06T04:55:38.465Z,98151.42
2018-03-06T04:56:41.032Z,98151.22
2018-03-06T04:57:43.594Z,98154.55
2018-03-06T04:58:46.144Z,98156.52
2018-03-06T04:59:48.686Z,98156.31
2018-03-06T05:00:51.227Z,98155.52
2018-03-06T05:01:53.768Z,98152.97
2018-03-06T05:02:56.332Z,98159.05
2018-03-06T05:03:58.879Z,98153.16
2018-03-06T05:05:01.423Z,98158.26
2018-03-06T05:06:03.972Z,98154.33
2018-03-06T05:07:06.514Z,98149.42
2018-03-06T05:08:09.075Z,98154.52
2018-03-06T05:09:11.613Z,98156.69
2018-03-06T05:10:14.163Z,98157.27
2018-03-06T05:11:16.701Z,98153.14
2018-03-06T05:12:19.234Z,98152.75
2018-03-06T05:13:21.819Z,98148.23
2018-03-06T05:14:24.388Z,98152.75
2018-03-06T05:15:26.925Z,98145.88
2018-03-06T05:16:29.568Z,98148.63
2018-03-06T05:17:32.116Z,98153.14
2018-03-06T05:18:34.670Z,98156.08
2018-03-06T05:19:37.212Z,98155.11
2018-03-06T05:20:39.770Z,98152.94
2018-03-06T05:21:42.315Z,98156.08
2018-03-06T05:22:44.872Z,98149.99
2018-03-06T05:23:47.440Z,98151.77
2018-03-06T05:24:49.985Z,98150.97
2018-03-06T05:25:52.524Z,98159.77
2018-03-06T05:26:55.119Z,98155.45
2018-03-06T05:27:57.606Z,98155.64
2018-03-06T05:29:00.137Z,98156.41
2018-03-06T05:30:02.705Z,98157.00
2018-03-06T05:31:05.282Z,98151.30
2018-03-06T05:32:07.852Z,98149.14
2018-03-06T05:33:10.420Z,98154.03
2018-03-06T05:34:12.945Z,98154.81
2018-03-06T05:35:15.492Z,98154.81
2018-03-06T05:36:18.026Z,98160.10
2018-03-06T05:37:20.557Z,98157.94
2018-03-06T05:38:23.116Z,98157.16
2018-03-06T05:39:25.690Z,98164.61
2018-03-06T05:40:28.350Z,98159.30
2018-03-06T05:41:30.891Z,98164.00
2018-03-06T05:42:33.444Z,98159.49
2018-03-06T05:43:36.009Z,98161.84
2018-03-06T05:44:38.563Z,98163.80
2018-03-06T05:45:41.108Z,98167.34
2018-03-06T05:46:43.668Z,98161.84
2018-03-06T05:47:46.191Z,98165.57
2018-03-06T05:48:48.756Z,98163.22
2018-03-06T05:49:51.291Z,98166.95
2018-03-06T05:50:53.834Z,98161.84
2018-03-06T05:51:56.419Z,98164.20
2018-03-06T05:52:59.095Z,98165.38
2018-03-06T05:54:01.734Z,98161.45
2018-03-06T05:55:04.405Z,98165.77
2018-03-06T05:56:07.080Z,98162.62
2018-03-06T05:57:09.716Z,98167.13
2018-03-06T05:58:12.343Z,98167.72
2018-03-06T05:59:14.950Z,98161.83
2018-03-06T06:00:17.508Z,98166.93
2018-03-06T06:01:20.038Z,98165.16
2018-03-06T06:02:22.578Z,98157.91
2018-03-06T06:03:25.124Z,98161.20
2018-03-06T06:04:27.677Z,98163.16
2018-03-06T06:05:30.228Z,98163.55
2018-03-06T06:06:32.762Z,98160.21
2018-03-06T06:07:35.300Z,98166.89
2018-03-06T06:08:38.450Z,98161.39
2018-03-06T06:09:41.467Z,98167.08
2018-03-06T06:10:44.018Z,98169.03
2018-03-06T06:11:47.001Z,98167.66
2018-03-06T06:12:49.533Z,98168.26
2018-03-06T06:13:52.073Z,98169.23
2018-03-06T06:14:54.594Z,98170.61
2018-03-06T06:15:57.128Z,98177.67
2018-03-06T06:16:59.658Z,98175.11
2018-03-06T06:18:02.230Z,98169.23
2018-03-06T06:19:04.791Z,98175.11
2018-03-06T06:20:07.302Z,98170.02
2018-03-06T06:21:09.839Z,98170.80
2018-03-06T06:22:12.693Z,98176.69
2018-03-06T06:23:15.259Z,98176.31
2018-03-06T06:24:17.932Z,98180.66
2018-03-06T06:25:20.720Z,98173.41
2018-03-06T06:26:23.356Z,98177.16
2018-03-06T06:27:26.032Z,98179.30
2018-03-06T06:28:28.628Z,98182.05
2018-03-06T06:29:31.363Z,98179.89
2018-03-06T06:30:33.908Z,98179.09
2018-03-06T06:31:36.466Z,98182.43
2018-03-06T06:32:39.008Z,98184.20
2018-03-06T06:33:41.513Z,98182.62
2018-03-06T06:34:44.037Z,98192.79
2018-03-06T06:35:46.564Z,98182.39
2018-03-06T06:36:49.112Z,98185.12
2018-03-06T06:37:51.638Z,98185.70
2018-03-06T06:38:54.163Z,98190.02
2018-03-06T06:39:56.728Z,98188.44
2018-03-06T06:40:59.327Z,98185.88
2018-03-06T06:42:01.851Z,98190.98
2018-03-06T06:43:04.373Z,98190.19
2018-03-06T06:44:06.877Z,98188.22
2018-03-06T06:45:09.415Z,98192.53
2018-03-06T06:46:11.940Z,98195.06
2018-03-06T06:47:14.458Z,98190.16
2018-03-06T06:48:16.977Z,98191.72
2018-03-06T06:49:19.486Z,98194.66
2018-03-06T06:50:22.054Z,98192.30
2018-03-06T06:51:24.572Z,98195.05
2018-03-06T06:52:27.145Z,98192.30
2018-03-06T06:53:29.666Z,98190.14
2018-03-06T06:54:32.219Z,98193.27
2018-03-06T06:55:34.750Z,98196.20
2018-03-06T06:56:37.274Z,98188.72
2018-03-06T06:57:39.814Z,98191.05
2018-03-06T06:58:42.393Z,98186.81
2018-03-06T06:59:44.972Z,98191.41
2018-03-06T07:00:47.522Z,98188.28
2018-03-06T07:01:50.090Z,98186.12
2018-03-06T07:02:52.748Z,98187.33
2018-03-06T07:03:55.305Z,98188.05
2018-03-06T07:04:57.873Z,98186.98
2018-03-06T07:06:00.426Z,98185.55
2018-03-06T07:07:02.953Z,98182.47
2018-03-06T07:08:05.556Z,98184.36
2018-03-06T07:09:08.228Z,98184.45
2018-03-06T07:10:10.768Z,98187.72
2018-03-06T07:11:13.298Z,98179.66
2018-03-06T07:12:15.835Z,98182.54
2018-03-06T07:13:18.401Z,98181.70
2018-03-06T07:14:20.918Z,98182.05
2018-03-06T07:15:23.444Z,98184.19
2018-03-06T07:16:25.965Z,98182.23
2018-03-06T07:17:28.490Z,98179.75
2018-03-06T07:18:31.037Z,98180.17
2018-03-06T07:19:33.599Z,98184.47
2018-03-06T07:20:36.150Z,98183.02
2018-03-06T07:21:38.678Z,98188.48
2018-03-06T07:22:41.210Z,98178.89
2018-03-06T07:23:43.839Z,98191.17
2018-03-06T07:24:46.346Z,98190.73
2018-03-06T07:25:48.932Z,98185.04
2018-03-06T07:26:51.488Z,98188.07
2018-03-06T07:27:54.030Z,98189.19
2018-03-06T07:28:56.564Z,98187.37
2018-03-06T07:29:59.108Z,98189.11
2018-03-06T07:31:01.665Z,98189.69
2018-03-06T07:32:04.205Z,98189.39
2018-03-06T07:33:06.840Z,98186.47
2018-03-06T07:34:09.444Z,98196.45
2018-03-06T07:35:11.978Z,98186.71
2018-03-06T07:36:14.591Z,98190.83
2018-03-06T07:37:17.140Z,98185.69
2018-03-06T07:38:19.740Z,98187.84
2018-03-06T07:39:22.362Z,98182.81
2018-03-06T07:40:24.946Z,98190.16
2018-03-06T07:41:27.684Z,98186.57
2018-03-06T07:42:30.253Z,98185.85
2018-03-06T07:43:32.791Z,98186.11
2018-03-06T07:44:35.339Z,98186.63
2018-03-06T07:45:37.916Z,98186.47
2018-03-06T07:46:40.615Z,98184.16
2018-03-06T07:47:43.379Z,98183.31
2018-03-06T07:48:47.588Z,98185.17
2018-03-06T07:49:50.815Z,98178.66
2018-03-06T07:50:53.390Z,98180.80
2018-03-06T07:51:55.954Z,98177.66
2018-03-06T07:52:58.482Z,98185.58
2018-03-06T07:54:01.034Z,98185.58
2018-03-06T07:55:03.612Z,98185.03
2018-03-06T07:56:06.193Z,98181.33
2018-03-06T07:57:08.774Z,98186.63
2018-03-06T07:58:11.547Z,98181.88
2018-03-06T07:59:14.259Z,98182.80
2018-03-06T08:00:16.801Z,98181.31
2018-03-06T08:01:19.386Z,98185.09
2018-03-06T08:02:21.918Z,98178.66
2018-03-06T08:03:24.452Z,98183.01
2018-03-06T08:04:26.978Z,98180.89
2018-03-06T08:05:29.582Z,98183.45
2018-03-06T08:06:32.152Z,98187.39
2018-03-06T08:07:34.748Z,98187.60
2018-03-06T08:08:37.708Z,98186.03
2018-03-06T08:09:40.230Z,98186.63
2018-03-06T08:10:42.804Z,98185.06
2018-03-06T08:11:45.440Z,98189.19
2018-03-06T08:12:47.963Z,98185.06
2018-03-06T08:13:50.628Z,98185.84
2018-03-06T08:14:53.322Z,98186.04
2018-03-06T08:15:55.980Z,98187.41
2018-03-06T08:16:58.517Z,98185.44
2018-03-06T08:18:01.048Z,98186.03
2018-03-06T08:19:03.673Z,98190.15
2018-03-06T08:20:06.251Z,98187.59
2018-03-06T08:21:08.893Z,98186.20
2018-03-06T08:22:11.668Z,98187.14
2018-03-06T08:23:14.194Z,98179.28
2018-03-06T08:24:16.734Z,98184.97
2018-03-06T08:25:19.274Z,98183.00
2018-03-06T08:26:21.806Z,98183.00
2018-03-06T08:27:24.344Z,98177.16
2018-03-06T08:28:26.880Z,98179.53
2018-03-06T08:29:29.393Z,98182.70
2018-03-06T08:30:31.992Z,98176.66
2018-03-06T08:31:34.662Z,98171.95
2018-03-06T08:32:37.271Z,98174.55
2018-03-06T08:33:39.811Z,98182.83
2018-03-06T08:34:42.406Z,98181.06
2018-03-06T08:35:45.131Z,98175.98
2018-03-06T08:36:48.329Z,98171.03
2018-03-06T08:37:50.859Z,98171.27
2018-03-06T08:38:53.387Z,98173.66
2018-03-06T08:39:56.040Z,98162.64
2018-03-06T08:40:58.687Z,98170.71
2018-03-06T08:42:01.209Z,98169.14
2018-03-06T08:43:03.739Z,98159.10
2018-03-06T08:44:06.953Z,98163.43
2018-03-06T08:45:09.482Z,98159.50
2018-03-06T08:46:12.014Z,98157.93
2018-03-06T08:47:14.584Z,98161.87
2018-03-06T08:48:17.185Z,98159.14
2018-03-06T08:49:19.725Z,98166.66
2018-03-06T08:50:22.246Z,98163.31
2018-03-06T08:51:24.817Z,98159.80
2018-03-06T08:52:27.420Z,98157.84
2018-03-06T08:53:30.042Z,98155.08
2018-03-06T08:54:32.593Z,98159.03
2018-03-06T08:55:35.311Z,98157.05
2018-03-06T08:56:38.858Z,98154.09
2018-03-06T08:57:41.541Z,98158.25
2018-03-06T08:58:44.157Z,98158.66
2018-03-06T08:59:46.836Z,98162.59
2018-03-06T09:00:49.447Z,98157.69
2018-03-06T09:01:52.294Z,98158.28
2018-03-06T09:02:55.097Z,98159.44
2018-03-06T09:03:57.729Z,98164.56
2018-03-06T09:05:00.238Z,98164.75
2018-03-06T09:06:02.766Z,98157.30
2018-03-06T09:07:05.282Z,98161.81
2018-03-06T09:08:07.817Z,98169.69
2018-03-06T09:09:10.354Z,98165.74
2018-03-06T09:10:12.898Z,98164.55
2018-03-06T09:11:15.422Z,98164.55
2018-03-06T09:12:17.956Z,98162.39
2018-03-06T09:13:20.470Z,98163.58
2018-03-06T09:14:23.019Z,98168.11
2018-03-06T09:15:25.542Z,98164.96
2018-03-06T09:16:28.053Z,98164.58
2018-03-06T09:17:30.669Z,98161.42
2018-03-06T09:18:33.160Z,98159.66
2018-03-06T09:19:35.688Z,98159.23
2018-03-06T09:20:38.220Z,98156.46
2018-03-06T09:21:40.746Z,98156.08
2018-03-06T09:22:43.262Z,98156.08
2018-03-06T09:23:45.773Z,98153.72
2018-03-06T09:24:48.311Z,98159.21
2018-03-06T09:25:50.822Z,98153.52
2018-03-06T09:26:53.360Z,98153.52
2018-03-06T09:27:55.888Z,98156.44
2018-03-06T09:28:58.420Z,98155.66
2018-03-06T09:30:00.938Z,98158.22
2018-03-06T09:31:03.462Z,98162.36
2018-03-06T09:32:05.986Z,98158.42
2018-03-06T09:33:08.528Z,98159.58
2018-03-06T09:34:11.041Z,98158.78
2018-03-06T09:35:13.553Z,98159.77
2018-03-06T09:36:16.090Z,98160.98
2018-03-06T09:37:18.635Z,98162.95
2018-03-06T09:38:21.171Z,98165.70
2018-03-06T09:39:23.687Z,98165.33
2018-03-06T09:40:26.214Z,98166.11
2018-03-06T09:41:28.758Z,98170.23
2018-03-06T09:42:31.277Z,98173.21
2018-03-06T09:43:33.804Z,98167.70
2018-03-06T09:44:36.339Z,98166.91
2018-03-06T09:45:38.857Z,98165.33
2018-03-06T09:46:41.388Z,98169.27
2018-03-06T09:47:43.911Z,98168.67
2018-03-06T09:48:46.422Z,98163.36
2018-03-06T09:49:48.971Z,98167.70
2018-03-06T09:50:51.482Z,98165.14
2018-03-06T09:51:54.010Z,98164.55
2018-03-06T09:52:56.518Z,98164.91
2018-03-06T09:53:59.029Z,98171.22
2018-03-06T09:55:01.538Z,98164.52
2018-03-06T09:56:04.076Z,98166.70
2018-03-06T09:57:06.620Z,98163.94
2018-03-06T09:58:09.148Z,98164.14
2018-03-06T09:59:11.664Z,98170.05
2018-03-06T10:00:14.187Z,98169.46
2018-03-06T10:01:16.795Z,98169.66
2018-03-06T10:02:19.387Z,98158.41
2018-03-06T10:03:22.109Z,98168.25
2018-03-06T10:04:24.644Z,98164.52
2018-03-06T10:05:27.183Z,98165.30
2018-03-06T10:06:29.827Z,98162.75
2018-03-06T10:07:32.444Z,98172.78
2018-03-06T10:08:34.970Z,98165.11
2018-03-06T10:09:37.523Z,98165.87
2018-03-06T10:10:40.052Z,98162.13
2018-03-06T10:11:42.666Z,98164.89
2018-03-06T10:12:45.373Z,98163.91
2018-03-06T10:13:48.168Z,98162.33
2018-03-06T10:14:50.777Z,98160.16
2018-03-06T10:15:53.306Z,98157.61
2018-03-06T10:16:55.872Z,98163.91
2018-03-06T10:17:58.415Z,98161.55
2018-03-06T10:19:00.925Z,98160.95
2018-03-06T10:20:03.482Z,98159.34
2018-03-06T10:21:06.016Z,98158.56
2018-03-06T10:22:08.527Z,98157.77
2018-03-06T10:23:11.063Z,98160.92
2018-03-06T10:24:13.574Z,98163.48
2018-03-06T10:25:16.091Z,98157.37
2018-03-06T10:26:18.966Z,98152.46
2018-03-06T10:27:21.775Z,98156.59
2018-03-06T10:28:24.282Z,98154.23
2018-03-06T10:29:26.859Z,98160.52
2018-03-06T10:30:29.373Z,98157.97
2018-03-06T10:31:31.907Z,98154.45
2018-03-06T10:32:35.405Z,98159.97
2018-03-06T10:33:43.516Z,98168.82
2018-03-06T10:35:01.506Z,98158.61
2018-03-06T10:36:05.659Z,98163.34
2018-03-06T10:38:30.461Z,98165.33
2018-03-06T10:39:33.295Z,98169.45
2018-03-06T10:40:35.822Z,98166.70
2018-03-06T10:41:38.338Z,98162.36
2018-03-06T10:42:40.872Z,98167.09
2018-03-06T10:43:43.517Z,98169.05
2018-03-06T10:44:46.050Z,98164.52
2018-03-06T10:45:48.598Z,98165.73
2018-03-06T10:46:51.128Z,98161.17
2018-03-06T10:47:53.679Z,98160.98
2018-03-06T10:48:56.208Z,98157.24
2018-03-06T10:49:58.740Z,98157.24
2018-03-06T10:51:01.272Z,98157.64
2018-03-06T10:52:03.807Z,98158.23
2018-03-06T10:53:06.338Z,98155.08
2018-03-06T10:54:08.880Z,98160.98
2018-03-06T10:55:11.544Z,98154.70
2018-03-06T10:56:14.052Z,98156.67
2018-03-06T10:57:16.600Z,98158.44
2018-03-06T10:58:19.129Z,98151.52
2018-03-06T10:59:21.654Z,98156.25
2018-03-06T11:00:29.757Z,98159.39
2018-03-06T11:01:33.212Z,98156.45
2018-03-06T11:02:41.603Z,98155.46
2018-03-06T11:03:44.139Z,98159.59
2018-03-06T11:04:46.662Z,98157.44
2018-03-06T11:05:49.187Z,98158.22
2018-03-06T11:06:51.719Z,98153.70
2018-03-06T11:07:54.241Z,98156.06
2018-03-06T11:08:56.789Z,98159.20
2018-03-06T11:09:59.305Z,98156.25
2018-03-06T11:11:01.822Z,98152.09
2018-03-06T11:12:04.334Z,98152.48
2018-03-06T11:13:06.856Z,98156.42
2018-03-06T11:14:09.456Z,98152.48
2018-03-06T11:15:11.973Z,98146.00
2018-03-06T11:16:14.523Z,98150.72
2018-03-06T11:17:17.038Z,98147.96
2018-03-06T11:18:19.587Z,98156.82
2018-03-06T11:19:22.144Z,98152.09
2018-03-06T11:20:24.742Z,98147.17
2018-03-06T11:21:27.272Z,98150.52
2018-03-06T11:22:29.804Z,98149.14
2018-03-06T11:23:32.345Z,98154.45
2018-03-06T11:24:34.887Z,98146.39
2018-03-06T11:25:37.409Z,98151.91
2018-03-06T11:26:39.930Z,98147.18
2018-03-06T11:27:42.464Z,98148.75
2018-03-06T11:28:45.506Z,98147.15
2018-03-06T11:29:48.093Z,98142.03
2018-03-06T11:30:50.700Z,98149.12
2018-03-06T11:31:53.252Z,98144.20
2018-03-06T11:32:55.784Z,98148.92
2018-03-06T11:33:58.324Z,98150.50
2018-03-06T11:35:00.965Z,98150.69
2018-03-06T11:36:03.527Z,98146.56
2018-03-06T11:37:06.107Z,98148.52
2018-03-06T11:38:08.640Z,98143.02
2018-03-06T11:39:11.153Z,98147.73
2018-03-06T11:40:13.719Z,98145.18
2018-03-06T11:41:16.254Z,98150.89
2018-03-06T11:42:18.789Z,98147.54
2018-03-06T11:43:21.338Z,98143.61
2018-03-06T11:44:23.857Z,98142.59
2018-03-06T11:45:26.394Z,98152.62
2018-03-06T11:46:28.906Z,98148.72
2018-03-06T11:47:31.436Z,98149.91
2018-03-06T11:48:33.953Z,98147.55
2018-03-06T11:49:36.504Z,98146.95
2018-03-06T11:50:39.046Z,98152.30
2018-03-06T11:51:41.562Z,98148.16
2018-03-06T11:52:44.096Z,98147.96
2018-03-06T11:53:46.612Z,98149.14
2018-03-06T11:54:49.156Z,98151.73
2018-03-06T11:55:51.694Z,98148.75
2018-03-06T11:56:54.231Z,98145.21
2018-03-06T11:57:56.855Z,98153.47
2018-03-06T11:58:59.406Z,98148.36
2018-03-06T12:00:01.953Z,98146.39
2018-03-06T12:01:04.675Z,98151.91
2018-03-06T12:02:07.217Z,98149.54
2018-03-06T12:03:09.785Z,98148.16
2018-03-06T12:04:12.312Z,98148.16
2018-03-06T12:05:14.845Z,98145.61
2018-03-06T12:06:17.524Z,98143.64
2018-03-06T12:07:20.055Z,98141.86
2018-03-06T12:08:22.594Z,98145.80
2018-03-06T12:09:25.134Z,98144.81
2018-03-06T12:10:27.667Z,98140.30
2018-03-06T12:11:30.205Z,98146.78
2018-03-06T12:12:32.719Z,98145.38
2018-03-06T12:13:35.238Z,98148.53
2018-03-06T12:14:37.773Z,98145.77
2018-03-06T12:15:40.304Z,98145.58
2018-03-06T12:16:42.962Z,98146.36
2018-03-06T12:17:45.478Z,98141.64